Kennard, Texas
Current Conditions -  °F | °C
As of 4:15 AM on Saturday 22 Nov 2014 (Local Time) from KDKR Reporting Station
Overcast Overcast  
Wind Chill: 61°   Ceiling: 3000
Heat Index: 61°   Visibility: 10mi
Dew Point: 57°   Wind: 3mph
Humidity: 88%   Direction: 110°ESE
Pressure: 30.15"   Gusts: NA
Location:  31.36°N, 95.18°W
Report Text: KDKR 221015Z AUTO 11003KT 10SM SCT023 OVC030 16/14 A3015 RMK AO2 LTG DSNT N AND NW
Loading
Personal Weather Stations






























Interactive Weather Map New forecast layout! Learn more

10-Day Weather Forecast

Advertisements
Track Severe Weather on mobile